Terminal Aerodrome Forecast
Issued by NWS

Home | Current Version | Previous Version | Text Only | Print | Product List | Glossary On
Versions: 1 2 3 4 5 6 7 8 9 10 11 12 13 14 15 16 17 18 19 20
000
FTUS44 KBMX 242334
TAFTOI
TAF
KTOI 242334Z 2500/2524 16005KT P6SM OVC050
     FM251800 15012G17KT P6SM VCSH OVC050
     FM252200 17010G15KT 3SM RA VCTS OVC025CB=

USA.gov is the U.S. government's official web portal to all federal, state and local government web resources and services.